createdAt,value
2018-04-26T00:00:20.401Z,9.06
2018-04-26T00:01:20.391Z,8.99
2018-04-26T00:02:20.378Z,9.00
2018-04-26T00:03:20.367Z,9.06
2018-04-26T00:04:20.357Z,9.06
2018-04-26T00:05:20.345Z,9.04
2018-04-26T00:06:20.333Z,8.95
2018-04-26T00:07:20.322Z,9.02
2018-04-26T00:08:20.327Z,8.97
2018-04-26T00:09:20.299Z,9.04
2018-04-26T00:10:20.301Z,8.95
2018-04-26T00:11:20.276Z,8.97
2018-04-26T00:12:20.301Z,8.99
2018-04-26T00:13:20.254Z,9.03
2018-04-26T00:14:20.248Z,9.06
2018-04-26T00:15:20.286Z,9.03
2018-04-26T00:16:20.219Z,8.95
2018-04-26T00:17:20.208Z,8.99
2018-04-26T00:18:20.196Z,9.00
2018-04-26T00:19:20.187Z,9.00
2018-04-26T00:20:20.173Z,9.06
2018-04-26T00:21:20.162Z,9.00
2018-04-26T00:22:20.150Z,8.99
2018-04-26T00:23:20.139Z,8.97
2018-04-26T00:24:20.158Z,9.03
2018-04-26T00:25:20.117Z,8.95
2018-04-26T00:26:20.315Z,9.03
2018-04-26T00:27:20.092Z,9.03
2018-04-26T00:28:20.081Z,9.00
2018-04-26T00:29:20.080Z,8.99
2018-04-26T00:30:20.068Z,9.11
2018-04-26T00:31:20.050Z,9.06
2018-04-26T00:32:20.069Z,9.06
2018-04-26T00:33:20.025Z,9.06
2018-04-26T00:34:20.012Z,9.00
2018-04-26T00:35:20.004Z,9.03
2018-04-26T00:36:19.990Z,9.03
2018-04-26T00:37:19.981Z,9.00
2018-04-26T00:38:19.966Z,8.95
2018-04-26T00:39:19.973Z,9.00
2018-04-26T00:40:19.943Z,9.03
2018-04-26T00:41:19.949Z,9.10
2018-04-26T00:42:19.919Z,9.14
2018-04-26T00:43:19.911Z,9.06
2018-04-26T00:44:19.927Z,9.16
2018-04-26T00:45:19.886Z,9.11
2018-04-26T00:46:19.874Z,9.13
2018-04-26T00:47:19.863Z,9.22
2018-04-26T00:48:19.852Z,9.31
2018-04-26T00:49:19.840Z,9.26
2018-04-26T00:50:19.829Z,9.21
2018-04-26T00:51:19.820Z,9.25
2018-04-26T00:52:19.807Z,9.29
2018-04-26T00:53:19.795Z,9.23
2018-04-26T00:54:19.794Z,9.25
2018-04-26T00:55:19.873Z,9.28
2018-04-26T00:56:19.764Z,9.29
2018-04-26T00:57:19.750Z,9.31
2018-04-26T00:58:19.762Z,9.25
2018-04-26T00:59:19.750Z,9.18
2018-04-26T01:00:19.716Z,9.25
2018-04-26T01:01:19.756Z,9.25
2018-04-26T01:02:19.693Z,9.26
2018-04-26T01:03:19.681Z,9.22
2018-04-26T01:04:19.676Z,9.29
2018-04-26T01:05:19.661Z,9.22
2018-04-26T01:06:19.648Z,9.21
2018-04-26T01:07:19.637Z,9.22
2018-04-26T01:08:19.625Z,9.11
2018-04-26T01:09:19.630Z,9.06
2018-04-26T01:10:19.629Z,9.16
2018-04-26T01:11:19.591Z,9.10
2018-04-26T01:12:19.580Z,9.10
2018-04-26T01:13:19.569Z,9.13
2018-04-26T01:14:19.568Z,9.13
2018-04-26T01:15:19.545Z,9.18
2018-04-26T01:16:19.545Z,9.14
2018-04-26T01:17:19.525Z,9.18
2018-04-26T01:18:19.511Z,9.26
2018-04-26T01:19:19.501Z,9.23
2018-04-26T01:20:19.490Z,9.21
2018-04-26T01:21:19.477Z,9.29
2018-04-26T01:22:19.466Z,9.25
2018-04-26T01:23:19.454Z,9.23
2018-04-26T01:24:19.443Z,9.23
2018-04-26T01:25:19.444Z,9.22
2018-04-26T01:26:19.420Z,9.28
2018-04-26T01:27:19.447Z,9.21
2018-04-26T01:28:19.398Z,9.28
2018-04-26T01:29:19.403Z,9.22
2018-04-26T01:30:19.401Z,9.28
2018-04-26T01:31:19.364Z,9.23
2018-04-26T01:32:19.353Z,9.31
2018-04-26T01:33:19.365Z,9.29
2018-04-26T01:34:19.330Z,9.34
2018-04-26T01:35:19.320Z,9.31
2018-04-26T01:36:19.309Z,9.34
2018-04-26T01:37:19.298Z,9.31
2018-04-26T01:38:19.288Z,9.28
2018-04-26T01:39:19.302Z,9.26
2018-04-26T01:40:19.266Z,9.18
2018-04-26T01:41:19.252Z,9.26
2018-04-26T01:42:19.240Z,9.25
2018-04-26T01:43:19.230Z,9.22
2018-04-26T01:44:19.220Z,9.23
2018-04-26T01:45:19.225Z,9.26
2018-04-26T01:46:19.196Z,9.25
2018-04-26T01:47:19.186Z,9.26
2018-04-26T01:48:19.175Z,9.26
2018-04-26T01:49:19.162Z,9.23
2018-04-26T01:50:19.153Z,9.23
2018-04-26T01:51:19.140Z,9.29
2018-04-26T01:52:19.129Z,9.26
2018-04-26T01:53:19.118Z,9.32
2018-04-26T01:54:19.127Z,9.28
2018-04-26T01:55:19.095Z,9.25
2018-04-26T01:56:19.189Z,9.25
2018-04-26T01:57:19.073Z,9.26
2018-04-26T01:58:19.061Z,9.29
2018-04-26T01:59:19.062Z,9.28
2018-04-26T02:00:19.042Z,9.31
2018-04-26T02:01:19.028Z,9.29
2018-04-26T02:02:19.048Z,9.36
2018-04-26T02:03:19.007Z,9.26
2018-04-26T02:04:18.996Z,9.25
2018-04-26T02:05:18.983Z,9.34
2018-04-26T02:06:18.972Z,9.28
2018-04-26T02:07:18.961Z,9.29
2018-04-26T02:08:18.955Z,9.29
2018-04-26T02:09:18.945Z,9.34
2018-04-26T02:10:18.927Z,9.29
2018-04-26T02:11:18.919Z,9.32
2018-04-26T02:12:18.905Z,9.28
2018-04-26T02:13:18.900Z,9.26
2018-04-26T02:14:18.907Z,9.25
2018-04-26T02:15:18.872Z,9.28
2018-04-26T02:16:18.901Z,9.22
2018-04-26T02:17:18.849Z,9.29
2018-04-26T02:18:18.837Z,9.26
2018-04-26T02:19:18.827Z,9.22
2018-04-26T02:20:18.816Z,9.25
2018-04-26T02:21:18.805Z,9.31
2018-04-26T02:22:18.800Z,9.25
2018-04-26T02:23:18.794Z,9.36
2018-04-26T02:24:18.771Z,9.41
2018-04-26T02:25:18.781Z,9.43
2018-04-26T02:26:18.748Z,9.37
2018-04-26T02:27:18.737Z,9.39
2018-04-26T02:28:18.744Z,9.34
2018-04-26T02:29:18.716Z,9.36
2018-04-26T02:30:18.722Z,9.28
2018-04-26T02:31:18.694Z,9.34
2018-04-26T02:32:18.682Z,9.25
2018-04-26T02:33:18.672Z,9.37
2018-04-26T02:34:18.661Z,9.46
2018-04-26T02:35:18.649Z,9.41
2018-04-26T02:36:18.638Z,9.41
2018-04-26T02:37:18.628Z,9.36
2018-04-26T02:38:18.622Z,9.39
2018-04-26T02:39:18.661Z,9.36
2018-04-26T02:40:18.594Z,9.41
2018-04-26T02:41:18.582Z,9.46
2018-04-26T02:42:18.598Z,9.43
2018-04-26T02:43:18.579Z,9.41
2018-04-26T02:44:18.549Z,9.39
2018-04-26T02:45:18.742Z,9.43
2018-04-26T02:46:18.603Z,9.39
2018-04-26T02:47:18.517Z,9.43
2018-04-26T02:48:18.512Z,9.40
2018-04-26T02:49:18.494Z,9.40
2018-04-26T02:50:18.481Z,9.44
2018-04-26T02:51:18.471Z,9.40
2018-04-26T02:52:18.469Z,9.40
2018-04-26T02:53:18.450Z,9.39
2018-04-26T02:54:18.457Z,9.34
2018-04-26T02:55:18.426Z,9.28
2018-04-26T02:56:18.415Z,9.18
2018-04-26T02:57:18.404Z,9.19
2018-04-26T02:58:18.406Z,9.18
2018-04-26T02:59:18.382Z,9.22
2018-04-26T03:00:18.374Z,9.23
2018-04-26T03:01:18.359Z,9.28
2018-04-26T03:02:18.347Z,9.19
2018-04-26T03:03:18.341Z,9.25
2018-04-26T03:04:18.325Z,9.29
2018-04-26T03:05:18.315Z,9.19
2018-04-26T03:06:18.302Z,9.25
2018-04-26T03:07:18.301Z,9.26
2018-04-26T03:08:18.312Z,9.22
2018-04-26T03:09:18.276Z,9.25
2018-04-26T03:10:18.258Z,9.34
2018-04-26T03:11:18.276Z,9.22
2018-04-26T03:12:18.239Z,9.31
2018-04-26T03:13:18.224Z,9.25
2018-04-26T03:14:18.432Z,9.22
2018-04-26T03:15:18.202Z,9.03
2018-04-26T03:16:18.239Z,8.84
2018-04-26T03:17:18.179Z,8.70
2018-04-26T03:18:18.168Z,8.51
2018-04-26T03:19:18.154Z,8.52
2018-04-26T03:20:18.150Z,8.42
2018-04-26T03:21:18.190Z,8.26
2018-04-26T03:22:18.123Z,8.37
2018-04-26T03:23:18.108Z,8.24
2018-04-26T03:24:18.144Z,8.27
2018-04-26T03:25:18.107Z,8.36
2018-04-26T03:26:18.073Z,8.28
2018-04-26T03:27:18.073Z,8.28
2018-04-26T03:28:18.050Z,8.36
2018-04-26T03:29:18.038Z,8.31
2018-04-26T03:30:18.027Z,8.19
2018-04-26T03:31:18.125Z,8.18
2018-04-26T03:32:18.003Z,8.09
2018-04-26T03:33:17.991Z,8.15
2018-04-26T03:34:17.979Z,8.18
2018-04-26T03:35:18.036Z,8.18
2018-04-26T03:36:17.956Z,8.15
2018-04-26T03:37:17.948Z,8.10
2018-04-26T03:38:17.931Z,8.12
2018-04-26T03:39:17.919Z,8.01
2018-04-26T03:40:17.907Z,8.12
2018-04-26T03:41:17.896Z,8.03
2018-04-26T03:42:17.883Z,8.01
2018-04-26T03:43:17.870Z,8.05
2018-04-26T03:44:17.875Z,8.03
2018-04-26T03:45:17.885Z,7.97
2018-04-26T03:46:17.842Z,8.00
2018-04-26T03:47:17.823Z,8.05
2018-04-26T03:48:17.846Z,8.01
2018-04-26T03:49:17.800Z,8.05
2018-04-26T03:50:17.990Z,8.01
2018-04-26T03:51:17.783Z,8.03
2018-04-26T03:52:17.763Z,7.95
2018-04-26T03:53:17.752Z,8.03
2018-04-26T03:54:17.755Z,8.00
2018-04-26T03:55:17.757Z,7.98
2018-04-26T03:56:17.717Z,7.97
2018-04-26T03:57:17.736Z,7.94
2018-04-26T03:58:17.695Z,7.98
2018-04-26T03:59:17.684Z,8.01
2018-04-26T04:00:17.672Z,7.94
2018-04-26T04:01:17.658Z,8.03
2018-04-26T04:02:17.645Z,7.98
2018-04-26T04:03:17.633Z,7.98
2018-04-26T04:04:17.649Z,8.00
2018-04-26T04:05:17.612Z,8.00
2018-04-26T04:06:17.643Z,8.03
2018-04-26T04:07:17.586Z,8.05
2018-04-26T04:08:17.809Z,8.09
2018-04-26T04:09:17.571Z,8.09
2018-04-26T04:10:17.584Z,8.15
2018-04-26T04:11:17.584Z,8.16
2018-04-26T04:12:17.555Z,8.19
2018-04-26T04:13:17.514Z,8.01
2018-04-26T04:14:17.548Z,8.01
2018-04-26T04:15:17.489Z,8.00
2018-04-26T04:16:17.478Z,7.95
2018-04-26T04:17:17.466Z,7.98
2018-04-26T04:18:17.453Z,7.97
2018-04-26T04:19:17.441Z,7.97
2018-04-26T04:20:17.430Z,8.03
2018-04-26T04:21:17.439Z,8.05
2018-04-26T04:22:17.406Z,8.10
2018-04-26T04:23:17.474Z,8.09
2018-04-26T04:24:17.383Z,8.15
2018-04-26T04:25:17.440Z,8.10
2018-04-26T04:26:17.357Z,8.18
2018-04-26T04:27:17.346Z,8.15
2018-04-26T04:28:17.337Z,8.18
2018-04-26T04:29:17.324Z,8.19
2018-04-26T04:30:17.310Z,8.26
2018-04-26T04:31:17.503Z,8.13
2018-04-26T04:32:17.287Z,8.23
2018-04-26T04:33:17.276Z,8.19
2018-04-26T04:34:17.263Z,8.20
2018-04-26T04:35:17.299Z,8.23
2018-04-26T04:36:17.248Z,8.30
2018-04-26T04:37:17.443Z,8.24
2018-04-26T04:38:17.221Z,8.27
2018-04-26T04:39:17.204Z,8.20
2018-04-26T04:40:17.199Z,8.16
2018-04-26T04:41:17.185Z,8.19
2018-04-26T04:42:17.170Z,8.19
2018-04-26T04:43:17.157Z,8.19
2018-04-26T04:44:17.146Z,8.24
2018-04-26T04:45:17.218Z,8.26
2018-04-26T04:46:17.222Z,8.36
2018-04-26T04:47:17.189Z,8.31
2018-04-26T04:48:17.111Z,8.36
2018-04-26T04:49:17.092Z,8.19
2018-04-26T04:50:17.075Z,8.18
2018-04-26T04:51:17.064Z,8.20
2018-04-26T04:52:17.056Z,8.16
2018-04-26T04:53:17.041Z,8.23
2018-04-26T04:54:17.029Z,8.23
2018-04-26T04:55:17.017Z,8.16
2018-04-26T04:56:17.054Z,8.19
2018-04-26T04:57:17.012Z,8.16
2018-04-26T04:58:16.984Z,8.20
2018-04-26T04:59:16.974Z,8.20
2018-04-26T05:00:16.962Z,8.36
2018-04-26T05:01:16.949Z,8.33
2018-04-26T05:02:16.966Z,8.33
2018-04-26T05:03:16.926Z,8.37
2018-04-26T05:04:16.916Z,8.44
2018-04-26T05:05:16.911Z,8.37
2018-04-26T05:06:16.972Z,8.38
2018-04-26T05:07:16.930Z,8.38
2018-04-26T05:08:16.867Z,8.41
2018-04-26T05:09:16.864Z,8.36
2018-04-26T05:10:16.851Z,8.41
2018-04-26T05:11:16.832Z,8.42
2018-04-26T05:12:16.822Z,8.46
2018-04-26T05:13:16.821Z,8.42
2018-04-26T05:14:16.872Z,8.45
2018-04-26T05:15:16.816Z,8.53
2018-04-26T05:16:16.783Z,8.51
2018-04-26T05:17:16.765Z,8.55
2018-04-26T05:18:16.757Z,8.49
2018-04-26T05:19:16.746Z,8.55
2018-04-26T05:20:16.733Z,8.48
2018-04-26T05:21:16.726Z,8.55
2018-04-26T05:22:16.708Z,8.51
2018-04-26T05:23:16.698Z,8.42
2018-04-26T05:24:16.692Z,8.45
2018-04-26T05:25:16.678Z,8.38
2018-04-26T05:26:16.695Z,8.37
2018-04-26T05:27:16.652Z,8.36
2018-04-26T05:28:16.643Z,8.34
2018-04-26T05:29:16.643Z,8.38
2018-04-26T05:30:16.620Z,8.33
2018-04-26T05:31:16.605Z,8.31
2018-04-26T05:32:16.594Z,8.30
2018-04-26T05:33:16.688Z,8.34
2018-04-26T05:34:16.605Z,8.30
2018-04-26T05:35:16.563Z,8.33
2018-04-26T05:36:16.558Z,8.30
2018-04-26T05:37:16.537Z,8.34
2018-04-26T05:38:16.528Z,8.19
2018-04-26T05:39:16.584Z,8.28
2018-04-26T05:40:16.523Z,8.24
2018-04-26T05:41:16.493Z,8.20
2018-04-26T05:42:16.477Z,8.19
2018-04-26T05:43:16.475Z,8.27
2018-04-26T05:44:16.483Z,8.30
2018-04-26T05:45:16.443Z,8.26
2018-04-26T05:46:16.434Z,8.15
2018-04-26T05:47:16.519Z,8.23
2018-04-26T05:48:16.413Z,8.23
2018-04-26T05:49:16.402Z,8.19
2018-04-26T05:50:16.392Z,8.20
2018-04-26T05:51:16.377Z,8.34
2018-04-26T05:52:16.368Z,8.30
2018-04-26T05:53:16.403Z,8.28
2018-04-26T05:54:16.370Z,8.28
2018-04-26T05:55:16.327Z,8.34
2018-04-26T05:56:16.319Z,8.37
2018-04-26T05:57:16.306Z,8.31
2018-04-26T05:58:16.297Z,8.38
2018-04-26T05:59:16.284Z,8.28
2018-04-26T06:00:16.270Z,8.36
2018-04-26T06:01:16.342Z,8.28
2018-04-26T06:02:16.311Z,8.36
2018-04-26T06:03:16.239Z,8.45
2018-04-26T06:04:16.228Z,8.46
2018-04-26T06:05:16.213Z,8.42
2018-04-26T06:06:16.203Z,8.53
2018-04-26T06:07:16.257Z,8.55
2018-04-26T06:08:16.204Z,8.48
2018-04-26T06:09:16.169Z,8.48
2018-04-26T06:10:16.160Z,8.51
2018-04-26T06:11:16.214Z,8.48
2018-04-26T06:12:16.131Z,8.49
2018-04-26T06:13:16.326Z,8.48
2018-04-26T06:14:16.143Z,8.45
2018-04-26T06:15:16.097Z,8.49
2018-04-26T06:16:16.085Z,8.55
2018-04-26T06:17:16.135Z,8.53
2018-04-26T06:18:16.069Z,8.56
2018-04-26T06:19:16.052Z,8.67
2018-04-26T06:20:16.046Z,8.66
2018-04-26T06:21:16.034Z,8.74
2018-04-26T06:22:16.019Z,8.74
2018-04-26T06:23:16.009Z,8.73
2018-04-26T06:24:15.999Z,8.76
2018-04-26T06:25:15.983Z,8.71
2018-04-26T06:26:15.981Z,8.71
2018-04-26T06:27:15.964Z,8.70
2018-04-26T06:28:15.952Z,8.64
2018-04-26T06:29:15.945Z,8.52
2018-04-26T06:30:15.931Z,8.36
2018-04-26T06:31:15.916Z,8.34
2018-04-26T06:32:15.908Z,8.20
2018-04-26T06:33:15.896Z,8.13
2018-04-26T06:34:15.886Z,8.12
2018-04-26T06:35:15.874Z,8.12
2018-04-26T06:36:15.947Z,8.18
2018-04-26T06:37:15.848Z,8.15
2018-04-26T06:38:15.839Z,8.26
2018-04-26T06:39:15.834Z,8.18
2018-04-26T06:40:15.817Z,8.12
2018-04-26T06:41:15.801Z,8.10
2018-04-26T06:42:15.875Z,8.16
2018-04-26T06:43:15.981Z,8.30
2018-04-26T06:44:15.792Z,8.33
2018-04-26T06:45:15.961Z,8.36
2018-04-26T06:46:15.744Z,8.44
2018-04-26T06:47:15.779Z,8.60
2018-04-26T06:48:15.731Z,8.53
2018-04-26T06:49:15.718Z,8.51
2018-04-26T06:50:15.702Z,8.58
2018-04-26T06:51:15.694Z,8.51
2018-04-26T06:52:15.681Z,8.55
2018-04-26T06:53:15.755Z,8.56
2018-04-26T06:54:15.658Z,8.52
2018-04-26T06:55:15.652Z,8.46
2018-04-26T06:56:15.634Z,8.49
2018-04-26T06:57:15.624Z,8.53
2018-04-26T06:58:15.612Z,8.58
2018-04-26T06:59:15.618Z,8.51
2018-04-26T07:00:15.591Z,8.58
2018-04-26T07:01:15.587Z,8.61
2018-04-26T07:02:15.570Z,8.63
2018-04-26T07:03:15.558Z,8.61
2018-04-26T07:04:15.553Z,8.67
2018-04-26T07:05:15.742Z,8.64
2018-04-26T07:06:15.530Z,8.63
2018-04-26T07:07:15.520Z,8.73
2018-04-26T07:08:15.505Z,8.70
2018-04-26T07:09:15.495Z,8.70
2018-04-26T07:10:15.483Z,8.69
2018-04-26T07:11:15.476Z,8.74
2018-04-26T07:12:15.462Z,8.70
2018-04-26T07:13:15.547Z,8.76
2018-04-26T07:14:15.489Z,8.76
2018-04-26T07:15:15.434Z,8.69
2018-04-26T07:16:15.418Z,8.71
2018-04-26T07:17:15.409Z,8.70
2018-04-26T07:18:15.398Z,8.69
2018-04-26T07:19:15.385Z,8.69
2018-04-26T07:20:15.413Z,8.82
2018-04-26T07:21:15.364Z,8.85
2018-04-26T07:22:15.353Z,8.82
2018-04-26T07:23:15.343Z,8.81
2018-04-26T07:24:15.414Z,8.87
2018-04-26T07:25:15.389Z,8.91
2018-04-26T07:26:15.311Z,9.00
2018-04-26T07:27:15.312Z,9.00
2018-04-26T07:28:15.291Z,8.99
2018-04-26T07:29:15.281Z,9.03
2018-04-26T07:30:15.269Z,9.03
2018-04-26T07:31:15.288Z,8.97
2018-04-26T07:32:15.249Z,9.03
2018-04-26T07:33:15.241Z,9.04
2018-04-26T07:34:15.230Z,9.00
2018-04-26T07:35:15.218Z,9.11
2018-04-26T07:36:15.292Z,9.10
2018-04-26T07:37:15.202Z,9.04
2018-04-26T07:38:15.194Z,9.00
2018-04-26T07:39:15.183Z,9.08
2018-04-26T07:40:15.171Z,9.11
2018-04-26T07:41:15.271Z,9.25
2018-04-26T07:42:15.147Z,9.23
2018-04-26T07:43:15.141Z,9.40
2018-04-26T07:44:15.127Z,9.36
2018-04-26T07:45:15.118Z,9.59
2018-04-26T07:46:15.112Z,9.61
2018-04-26T07:47:15.100Z,9.68
2018-04-26T07:48:15.091Z,9.58
2018-04-26T07:49:15.138Z,9.61
2018-04-26T07:50:15.082Z,9.51
2018-04-26T07:51:15.075Z,9.64
2018-04-26T07:52:15.052Z,9.56
2018-04-26T07:53:15.117Z,9.55
2018-04-26T07:54:15.030Z,9.61
2018-04-26T07:55:15.020Z,9.82
2018-04-26T07:56:15.023Z,9.77
2018-04-26T07:57:15.007Z,9.92
2018-04-26T07:58:14.992Z,10.01
2018-04-26T07:59:15.190Z,10.42
2018-04-26T08:00:14.975Z,10.60
2018-04-26T08:01:14.995Z,10.42
2018-04-26T08:02:14.965Z,10.30
2018-04-26T08:03:14.956Z,10.13
2018-04-26T08:04:14.942Z,10.01
2018-04-26T08:05:14.935Z,9.95
2018-04-26T08:06:14.925Z,10.01
2018-04-26T08:07:15.126Z,10.04
2018-04-26T08:08:14.971Z,10.04
2018-04-26T08:09:14.905Z,10.23
2018-04-26T08:10:14.896Z,10.23
2018-04-26T08:11:14.883Z,10.15
2018-04-26T08:12:14.875Z,10.16
2018-04-26T08:13:14.934Z,10.04
2018-04-26T08:14:14.868Z,9.97
2018-04-26T08:15:14.863Z,9.97
2018-04-26T08:16:14.839Z,9.97
2018-04-26T08:17:14.833Z,9.94
2018-04-26T08:18:14.820Z,9.89
2018-04-26T08:19:14.855Z,9.91
2018-04-26T08:20:14.803Z,9.91
2018-04-26T08:21:14.796Z,10.04
2018-04-26T08:22:14.786Z,10.12
2018-04-26T08:23:14.773Z,10.19
2018-04-26T08:24:14.793Z,10.17
2018-04-26T08:25:14.764Z,10.10
2018-04-26T08:26:14.751Z,10.04
2018-04-26T08:27:14.736Z,10.01
2018-04-26T08:28:14.727Z,9.89
2018-04-26T08:29:14.717Z,9.87
2018-04-26T08:30:14.712Z,9.84
2018-04-26T08:31:14.711Z,9.92
2018-04-26T08:32:14.689Z,9.91
2018-04-26T08:33:14.685Z,9.84
2018-04-26T08:34:14.668Z,9.99
2018-04-26T08:35:14.666Z,9.95
2018-04-26T08:36:14.649Z,10.10
2018-04-26T08:37:14.677Z,10.37
2018-04-26T08:38:14.664Z,10.44
2018-04-26T08:39:14.621Z,10.67
2018-04-26T08:40:14.620Z,10.79
2018-04-26T08:41:14.606Z,10.82
2018-04-26T08:42:14.595Z,11.07
2018-04-26T08:43:14.586Z,11.14
2018-04-26T08:44:14.578Z,11.18
2018-04-26T08:45:14.651Z,11.00
2018-04-26T08:46:14.564Z,10.96
2018-04-26T08:47:14.557Z,10.97
2018-04-26T08:48:14.551Z,10.97
2018-04-26T08:49:14.538Z,10.93
2018-04-26T08:50:14.529Z,10.86
2018-04-26T08:51:14.521Z,10.84
2018-04-26T08:52:14.546Z,10.86
2018-04-26T08:53:14.518Z,10.87
2018-04-26T08:54:14.540Z,10.89
2018-04-26T08:55:14.495Z,10.90
2018-04-26T08:56:14.684Z,10.96
2018-04-26T08:57:14.476Z,11.29
2018-04-26T08:58:14.471Z,11.62
2018-04-26T08:59:14.459Z,11.97
2018-04-26T09:00:14.452Z,12.15
2018-04-26T09:01:14.456Z,12.42
2018-04-26T09:02:14.442Z,12.60
2018-04-26T09:03:14.448Z,12.70
2018-04-26T09:04:14.495Z,12.72
2018-04-26T09:05:14.439Z,12.78
2018-04-26T09:06:14.439Z,12.85
2018-04-26T09:07:14.435Z,13.12
2018-04-26T09:08:14.427Z,13.08
2018-04-26T09:09:14.426Z,13.25
2018-04-26T09:10:14.431Z,13.60
2018-04-26T09:11:14.492Z,13.86
2018-04-26T09:12:14.434Z,13.63
2018-04-26T09:13:14.502Z,13.56
2018-04-26T09:14:14.423Z,13.52
2018-04-26T09:15:14.428Z,13.31
2018-04-26T09:16:14.422Z,13.31
2018-04-26T09:17:14.421Z,13.13
2018-04-26T09:18:14.421Z,13.25
2018-04-26T09:19:14.466Z,13.13
2018-04-26T09:20:14.464Z,13.33
2018-04-26T09:21:14.424Z,13.65
2018-04-26T09:22:14.418Z,13.77
2018-04-26T09:23:14.421Z,13.77
2018-04-26T09:24:14.420Z,14.12
2018-04-26T09:25:14.427Z,14.23
2018-04-26T09:26:14.423Z,14.45
2018-04-26T09:27:14.425Z,14.97
2018-04-26T09:28:14.429Z,14.99
2018-04-26T09:29:14.440Z,15.06
2018-04-26T09:30:14.504Z,14.78
2018-04-26T09:31:14.437Z,14.68
2018-04-26T09:32:14.493Z,14.18
2018-04-26T09:33:14.462Z,13.81
2018-04-26T09:34:14.447Z,13.59
2018-04-26T09:35:14.500Z,13.37
2018-04-26T09:36:14.447Z,13.41
2018-04-26T09:37:14.453Z,13.08
2018-04-26T09:38:14.451Z,12.82
2018-04-26T09:39:14.647Z,12.29
2018-04-26T09:40:14.443Z,11.90
2018-04-26T09:41:14.446Z,11.62
2018-04-26T09:42:14.437Z,11.75
2018-04-26T09:43:14.434Z,12.03
2018-04-26T09:44:14.432Z,12.47
2018-04-26T09:45:14.463Z,12.97
2018-04-26T09:46:14.444Z,13.56
2018-04-26T09:47:14.426Z,14.03
2018-04-26T09:48:14.426Z,14.30
2018-04-26T09:49:14.435Z,14.25
2018-04-26T09:50:14.426Z,14.05
2018-04-26T09:51:14.434Z,13.87
2018-04-26T09:52:14.510Z,13.59
2018-04-26T09:53:14.437Z,13.59
2018-04-26T09:54:14.425Z,13.87
2018-04-26T09:55:14.427Z,13.68
2018-04-26T09:56:14.435Z,13.63
2018-04-26T09:57:14.511Z,13.67
2018-04-26T09:58:14.424Z,13.25
2018-04-26T09:59:14.435Z,13.54
2018-04-26T10:00:14.425Z,13.35
2018-04-26T10:01:14.437Z,13.05
2018-04-26T10:02:14.423Z,12.91
2018-04-26T10:03:14.418Z,12.73
2018-04-26T10:04:14.415Z,12.60
2018-04-26T10:05:14.412Z,12.53
2018-04-26T10:06:14.459Z,12.55
2018-04-26T10:07:14.430Z,12.55
2018-04-26T10:08:14.406Z,12.64
2018-04-26T10:09:14.397Z,12.64
2018-04-26T10:10:14.599Z,12.86
2018-04-26T10:11:14.389Z,13.04
2018-04-26T10:12:14.390Z,13.15
2018-04-26T10:13:14.388Z,13.49
2018-04-26T10:14:14.387Z,13.79
2018-04-26T10:15:14.380Z,14.29
2018-04-26T10:16:14.453Z,14.51
2018-04-26T10:17:14.393Z,14.68
2018-04-26T10:18:14.415Z,14.50
2018-04-26T10:19:14.373Z,14.29
2018-04-26T10:20:14.378Z,14.32
2018-04-26T10:21:14.422Z,14.44
2018-04-26T10:22:14.369Z,14.53
2018-04-26T10:23:14.424Z,14.51
2018-04-26T10:24:14.370Z,14.43
2018-04-26T10:25:14.366Z,14.23
2018-04-26T10:26:14.361Z,13.92
2018-04-26T10:27:14.360Z,13.57
2018-04-26T10:28:14.357Z,13.49
2018-04-26T10:29:14.353Z,13.53
2018-04-26T10:30:14.389Z,13.63
2018-04-26T10:31:14.352Z,13.65
2018-04-26T10:32:14.344Z,13.86
2018-04-26T10:33:14.347Z,14.12
2018-04-26T10:34:14.335Z,14.35
2018-04-26T10:35:14.359Z,14.79
2018-04-26T10:36:14.340Z,14.79
2018-04-26T10:37:14.328Z,14.55
2018-04-26T10:38:14.329Z,14.44
2018-04-26T10:39:14.324Z,14.32
2018-04-26T10:40:14.348Z,14.33
2018-04-26T10:41:14.333Z,14.35
2018-04-26T10:42:14.326Z,14.40
2018-04-26T10:43:14.318Z,14.33
2018-04-26T10:44:14.402Z,14.14
2018-04-26T10:45:14.308Z,14.05
2018-04-26T10:46:14.383Z,13.99
2018-04-26T10:47:14.300Z,13.77
2018-04-26T10:48:14.297Z,13.75
2018-04-26T10:49:14.294Z,13.50
2018-04-26T10:51:14.283Z,13.49
2018-04-26T10:52:14.284Z,13.47
2018-04-26T10:53:14.275Z,13.41
2018-04-26T10:54:14.278Z,13.47
2018-04-26T10:55:14.276Z,13.46
2018-04-26T10:56:14.350Z,13.50
2018-04-26T10:57:14.259Z,13.95
2018-04-26T10:58:14.261Z,14.33
2018-04-26T10:59:14.249Z,14.73
2018-04-26T11:00:14.325Z,15.17
2018-04-26T11:01:14.244Z,15.52
2018-04-26T11:02:14.454Z,15.57
2018-04-26T11:03:14.308Z,15.06
2018-04-26T11:04:14.245Z,15.10
2018-04-26T11:05:14.248Z,14.60
2018-04-26T11:06:14.238Z,14.29
2018-04-26T11:07:14.235Z,14.08
2018-04-26T11:08:14.238Z,14.04
2018-04-26T11:09:14.248Z,13.92
2018-04-26T11:10:14.229Z,13.89
2018-04-26T11:11:14.249Z,13.86
2018-04-26T11:12:14.223Z,13.75
2018-04-26T11:13:14.450Z,13.74
2018-04-26T11:14:14.274Z,13.85
2018-04-26T11:15:14.211Z,13.90
2018-04-26T11:16:14.210Z,14.00
2018-04-26T11:17:14.270Z,14.07
2018-04-26T11:18:14.196Z,14.26
2018-04-26T11:19:14.205Z,14.33
2018-04-26T11:20:14.193Z,14.11
2018-04-26T11:21:14.264Z,14.04
2018-04-26T11:22:14.268Z,14.05
2018-04-26T11:23:14.177Z,14.04
2018-04-26T11:24:14.176Z,14.05
2018-04-26T11:25:14.173Z,13.89
2018-04-26T11:26:14.160Z,13.86
2018-04-26T11:27:14.155Z,14.28
2018-04-26T11:28:14.155Z,14.18
2018-04-26T11:29:14.153Z,14.04
2018-04-26T11:30:14.143Z,14.26
2018-04-26T11:31:14.174Z,14.50
2018-04-26T11:32:14.137Z,14.37
2018-04-26T11:33:14.144Z,14.53
2018-04-26T11:34:14.132Z,14.77
2018-04-26T11:35:14.140Z,15.00
2018-04-26T11:36:14.130Z,15.02
2018-04-26T11:37:14.168Z,14.94
2018-04-26T11:38:14.141Z,14.82
2018-04-26T11:39:14.119Z,14.54
2018-04-26T11:40:14.206Z,14.58
2018-04-26T11:41:14.120Z,14.97
2018-04-26T11:42:14.123Z,15.40
2018-04-26T11:43:14.111Z,15.57
2018-04-26T11:44:14.177Z,15.59
2018-04-26T11:45:14.159Z,15.62
2018-04-26T11:46:14.319Z,15.57
2018-04-26T11:47:14.123Z,15.80
2018-04-26T11:48:14.118Z,16.12
2018-04-26T11:49:14.112Z,15.82
2018-04-26T11:50:14.117Z,15.82
2018-04-26T11:51:14.123Z,16.13
2018-04-26T11:52:14.121Z,16.39
2018-04-26T11:53:14.173Z,16.69
2018-04-26T11:54:14.162Z,16.38
2018-04-26T11:55:14.139Z,16.28
2018-04-26T11:56:14.130Z,16.28
2018-04-26T11:57:14.131Z,16.29
2018-04-26T11:58:14.134Z,16.12
2018-04-26T11:59:14.167Z,16.13
2018-04-26T12:00:14.135Z,16.29
2018-04-26T12:01:14.140Z,16.39
2018-04-26T12:02:14.166Z,16.05
2018-04-26T12:03:14.143Z,16.10
2018-04-26T12:04:14.144Z,16.13
2018-04-26T12:05:14.146Z,15.88
2018-04-26T12:06:14.155Z,16.00
2018-04-26T12:07:14.215Z,15.55
2018-04-26T12:08:14.184Z,15.54
2018-04-26T12:09:14.160Z,15.37
2018-04-26T12:10:14.169Z,15.37
2018-04-26T12:11:14.164Z,15.28
2018-04-26T12:12:14.160Z,14.94
2018-04-26T12:13:14.247Z,14.81
2018-04-26T12:14:14.160Z,15.35
2018-04-26T12:15:14.192Z,15.90
2018-04-26T12:16:14.168Z,16.23
2018-04-26T12:17:14.218Z,16.26
2018-04-26T12:18:14.185Z,16.38
2018-04-26T12:19:14.166Z,16.61
2018-04-26T12:20:14.168Z,16.49
2018-04-26T12:21:14.177Z,16.64
2018-04-26T12:22:14.179Z,16.87
2018-04-26T12:23:14.174Z,16.76
2018-04-26T12:24:14.180Z,16.99
2018-04-26T12:25:14.232Z,16.91
2018-04-26T12:26:14.250Z,16.65
2018-04-26T12:27:14.199Z,16.84
2018-04-26T12:28:14.187Z,16.71
2018-04-26T12:29:14.196Z,16.65
2018-04-26T12:30:14.195Z,17.01
2018-04-26T12:31:14.191Z,17.34
2018-04-26T12:32:14.406Z,17.70
2018-04-26T12:33:14.202Z,17.16
2018-04-26T12:34:14.203Z,16.91
2018-04-26T12:35:14.276Z,17.19
2018-04-26T12:36:14.207Z,17.36
2018-04-26T12:37:14.409Z,17.02
2018-04-26T12:38:14.221Z,16.64
2018-04-26T12:39:14.219Z,16.33
2018-04-26T12:40:14.214Z,16.41
2018-04-26T12:41:14.215Z,16.61
2018-04-26T12:42:14.318Z,16.96
2018-04-26T12:43:14.251Z,17.04
2018-04-26T12:44:14.226Z,16.78
2018-04-26T12:45:14.223Z,16.90
2018-04-26T12:46:14.226Z,16.91
2018-04-26T12:47:14.235Z,16.71
2018-04-26T12:48:14.228Z,16.09
2018-04-26T12:49:14.231Z,16.23
2018-04-26T12:50:14.253Z,16.42
2018-04-26T12:51:14.440Z,16.97
2018-04-26T12:52:14.315Z,17.54
2018-04-26T12:53:14.250Z,17.59
2018-04-26T12:54:14.236Z,17.59
2018-04-26T12:55:14.237Z,17.38
2018-04-26T12:56:14.240Z,17.15
2018-04-26T12:57:14.261Z,17.23
2018-04-26T12:58:14.307Z,17.31
2018-04-26T12:59:14.239Z,17.20
2018-04-26T13:00:14.240Z,17.70
2018-04-26T13:01:14.247Z,18.50
2018-04-26T13:02:14.317Z,18.71
2018-04-26T13:03:14.262Z,18.38
2018-04-26T13:04:14.243Z,17.83
2018-04-26T13:05:14.280Z,17.34
2018-04-26T13:06:14.256Z,17.36
2018-04-26T13:07:14.340Z,17.74
2018-04-26T13:08:14.238Z,17.83
2018-04-26T13:09:14.242Z,18.52